createdAt,value
2022-09-10T00:00:43.465Z,51.70
2022-09-10T00:03:10.770Z,55.50
2022-09-10T00:05:42.042Z,51.63
2022-09-10T00:08:09.422Z,52.65
2022-09-10T00:10:40.013Z,56.38
2022-09-10T00:13:07.546Z,53.60
2022-09-10T00:15:47.963Z,55.42
2022-09-10T00:18:16.058Z,52.47
2022-09-10T00:20:43.796Z,50.45
2022-09-10T00:23:11.114Z,53.40
2022-09-10T00:25:38.892Z,54.45
2022-09-10T00:28:05.379Z,48.63
2022-09-10T00:30:31.893Z,53.05
2022-09-10T00:32:58.205Z,54.15
2022-09-10T00:35:24.503Z,50.92
2022-09-10T00:37:51.176Z,51.83
2022-09-10T00:40:17.674Z,51.67
2022-09-10T00:42:43.988Z,49.90
2022-09-10T00:45:28.169Z,53.17
2022-09-10T00:48:00.009Z,57.08
2022-09-10T00:50:37.896Z,49.70
2022-09-10T00:53:08.577Z,50.60
2022-09-10T00:55:38.485Z,53.22
2022-09-10T00:58:07.060Z,49.25
2022-09-10T01:00:33.834Z,53.25
2022-09-10T01:03:01.987Z,52.78
2022-09-10T01:05:29.524Z,54.40
2022-09-10T01:07:57.927Z,54.28
2022-09-10T01:10:28.787Z,56.85
2022-09-10T01:13:13.717Z,54.35
2022-09-10T01:16:16.691Z,55.22
2022-09-10T01:19:07.303Z,51.53
2022-09-10T01:21:36.961Z,57.17
2022-09-10T01:24:12.590Z,52.30
2022-09-10T01:27:09.827Z,52.10
2022-09-10T01:29:44.759Z,53.28
2022-09-10T01:32:20.603Z,54.90
2022-09-10T01:35:05.769Z,53.83
2022-09-10T01:37:37.481Z,52.63
2022-09-10T01:40:05.058Z,50.42
2022-09-10T01:42:32.756Z,54.97
2022-09-10T01:44:59.775Z,60.95
2022-09-10T01:47:29.040Z,56.40
2022-09-10T01:50:08.783Z,58.10
2022-09-10T01:53:05.029Z,55.70
2022-09-10T01:55:59.902Z,56.13
2022-09-10T01:58:34.516Z,53.67
2022-09-10T02:01:12.926Z,53.67
2022-09-10T02:03:41.826Z,58.15
2022-09-10T02:06:13.145Z,55.53
2022-09-10T02:08:42.897Z,53.65
2022-09-10T02:11:11.695Z,53.90
2022-09-10T02:13:38.758Z,54.42
2022-09-10T02:16:09.312Z,53.65
2022-09-10T02:18:38.481Z,50.67
2022-09-10T02:21:06.190Z,56.67
2022-09-10T02:23:39.931Z,50.80
2022-09-10T02:26:06.592Z,53.92
2022-09-10T02:28:33.252Z,53.20
2022-09-10T02:30:59.626Z,52.25
2022-09-10T02:33:26.042Z,50.72
2022-09-10T02:35:53.724Z,52.22
2022-09-10T02:38:21.330Z,54.28
2022-09-10T02:40:51.264Z,53.42
2022-09-10T02:43:17.810Z,59.75
2022-09-10T02:45:44.874Z,57.38
2022-09-10T02:48:11.273Z,55.15
2022-09-10T02:50:37.632Z,57.55
2022-09-10T02:53:03.945Z,57.53
2022-09-10T02:55:31.315Z,55.85
2022-09-10T02:57:58.325Z,57.28
2022-09-10T03:00:24.898Z,56.28
2022-09-10T03:02:51.245Z,54.42
2022-09-10T03:05:17.785Z,56.35
2022-09-10T03:07:44.751Z,55.72
2022-09-10T03:10:11.152Z,56.67
2022-09-10T03:12:38.030Z,58.42
2022-09-10T03:15:05.017Z,57.85
2022-09-10T03:17:32.162Z,54.33
2022-09-10T03:19:58.472Z,54.45
2022-09-10T03:22:24.779Z,53.95
2022-09-10T03:24:51.062Z,57.83
2022-09-10T03:27:18.002Z,59.13
2022-09-10T03:29:45.162Z,56.03
2022-09-10T03:32:11.524Z,54.88
2022-09-10T03:34:37.855Z,53.28
2022-09-10T03:37:04.296Z,57.28
2022-09-10T03:39:30.626Z,56.08
2022-09-10T03:41:58.392Z,56.33
2022-09-10T03:44:25.252Z,58.30
2022-09-10T03:46:51.918Z,53.97
2022-09-10T03:49:18.360Z,59.45
2022-09-10T03:51:44.659Z,55.45
2022-09-10T03:54:10.978Z,54.78
2022-09-10T03:56:37.330Z,56.47
2022-09-10T03:59:03.644Z,57.63
2022-09-10T04:01:30.008Z,59.80
2022-09-10T04:03:57.413Z,55.53
2022-09-10T04:06:23.953Z,53.88
2022-09-10T04:08:52.661Z,62.22
2022-09-10T04:11:19.617Z,59.25
2022-09-10T04:13:49.003Z,59.95
2022-09-10T04:16:18.825Z,59.15
2022-09-10T04:18:45.471Z,56.47
2022-09-10T04:21:12.113Z,57.28
2022-09-10T04:23:41.089Z,54.85
2022-09-10T04:26:15.673Z,56.50
2022-09-10T04:28:41.979Z,53.42
2022-09-10T04:31:08.517Z,53.75
2022-09-10T04:33:34.936Z,52.95
2022-09-10T04:36:01.700Z,52.55
2022-09-10T04:38:30.298Z,55.17
2022-09-10T04:40:57.850Z,54.97
2022-09-10T04:43:25.585Z,57.47
2022-09-10T04:45:53.083Z,58.45
2022-09-10T04:48:19.485Z,58.72
2022-09-10T04:51:05.356Z,60.10
2022-09-10T04:53:32.309Z,65.80
2022-09-10T04:55:58.924Z,61.47
2022-09-10T04:58:25.260Z,58.40
2022-09-10T05:00:51.834Z,59.65
2022-09-10T05:03:18.486Z,60.67
2022-09-10T05:05:47.868Z,57.85
2022-09-10T05:08:14.364Z,54.10
2022-09-10T05:10:41.231Z,56.83
2022-09-10T05:13:08.104Z,62.55
2022-09-10T05:15:35.710Z,61.30
2022-09-10T05:18:02.091Z,55.20
2022-09-10T05:20:28.474Z,57.33
2022-09-10T05:22:55.089Z,57.45
2022-09-10T05:25:21.685Z,55.15
2022-09-10T05:27:49.178Z,56.72
2022-09-10T05:30:15.501Z,55.85
2022-09-10T05:32:41.808Z,57.08
2022-09-10T05:35:08.671Z,60.08
2022-09-10T05:37:34.990Z,58.15
2022-09-10T05:40:06.492Z,60.85
2022-09-10T05:42:33.042Z,61.92
2022-09-10T05:44:59.471Z,60.53
2022-09-10T05:47:25.768Z,62.30
2022-09-10T05:49:52.095Z,61.08
2022-09-10T05:52:18.400Z,66.70
2022-09-10T05:54:44.708Z,59.90
2022-09-10T05:57:11.431Z,61.72
2022-09-10T05:59:37.818Z,61.60
2022-09-10T06:02:04.210Z,59.53
2022-09-10T06:04:30.606Z,63.78
2022-09-10T06:06:56.921Z,62.92
2022-09-10T06:09:23.329Z,56.95
2022-09-10T06:11:49.872Z,62.35
2022-09-10T06:14:16.804Z,59.60
2022-09-10T06:16:43.253Z,60.83
2022-09-10T06:19:09.748Z,61.40
2022-09-10T06:21:36.164Z,60.75
2022-09-10T06:24:02.591Z,62.88
2022-09-10T06:26:28.900Z,64.63
2022-09-10T06:28:56.701Z,66.38
2022-09-10T06:31:23.236Z,61.20
2022-09-10T06:33:49.534Z,65.10
2022-09-10T06:36:16.209Z,63.72
2022-09-10T06:38:44.887Z,59.72
2022-09-10T06:41:13.435Z,64.18
2022-09-10T06:43:41.462Z,68.40
2022-09-10T06:46:26.849Z,64.13
2022-09-10T06:49:00.761Z,63.15
2022-09-10T06:51:27.155Z,67.85
2022-09-10T06:53:53.451Z,71.20
2022-09-10T06:56:19.770Z,70.82
2022-09-10T06:58:46.388Z,69.93
2022-09-10T07:01:15.564Z,69.38
2022-09-10T07:03:43.388Z,70.43
2022-09-10T07:06:13.236Z,72.57
2022-09-10T07:08:40.024Z,73.75
2022-09-10T07:11:11.195Z,70.63
2022-09-10T07:13:37.764Z,83.10
2022-09-10T07:16:04.371Z,84.80
2022-09-10T07:18:30.949Z,80.80
2022-09-10T07:21:11.526Z,81.95
2022-09-10T07:23:40.969Z,79.22
2022-09-10T07:26:16.031Z,77.93
2022-09-10T07:28:42.929Z,76.05
2022-09-10T07:31:24.022Z,80.25
2022-09-10T07:33:51.024Z,81.72
2022-09-10T07:36:18.215Z,81.00
2022-09-10T07:38:45.113Z,89.45
2022-09-10T07:41:13.931Z,82.47
2022-09-10T07:43:41.859Z,86.05
2022-09-10T07:46:12.423Z,79.70
2022-09-10T07:48:40.250Z,82.53
2022-09-10T07:51:08.660Z,81.93
2022-09-10T07:53:35.656Z,86.15
2022-09-10T07:56:04.945Z,94.15
2022-09-10T07:58:33.170Z,86.15
2022-09-10T08:00:59.987Z,91.60
2022-09-10T08:03:31.822Z,91.03
2022-09-10T08:06:02.403Z,83.38
2022-09-10T08:08:34.024Z,82.05
2022-09-10T08:11:17.876Z,76.80
2022-09-10T08:13:46.807Z,72.95
2022-09-10T08:16:16.933Z,80.35
2022-09-10T08:18:43.827Z,87.43
2022-09-10T08:21:10.728Z,93.68
2022-09-10T08:23:39.424Z,98.07
2022-09-10T08:26:08.331Z,95.30
2022-09-10T08:28:35.384Z,97.65
2022-09-10T08:31:09.695Z,101.57
2022-09-10T08:36:04.670Z,99.63
2022-09-10T08:38:36.670Z,100.82
2022-09-10T08:41:09.202Z,96.28
2022-09-10T08:43:43.790Z,100.32
2022-09-10T08:46:22.496Z,99.25
2022-09-10T08:48:55.155Z,105.10
2022-09-10T08:51:29.929Z,110.70
2022-09-10T08:54:10.089Z,112.38
2022-09-10T08:56:37.346Z,118.93
2022-09-10T08:59:21.792Z,118.43
2022-09-10T09:02:00.959Z,116.93
2022-09-10T09:04:58.407Z,117.22
2022-09-10T09:07:31.071Z,117.80
2022-09-10T09:09:57.396Z,127.50
2022-09-10T09:12:36.957Z,128.77
2022-09-10T09:15:18.137Z,128.32
2022-09-10T09:18:15.427Z,121.18
2022-09-10T09:20:46.975Z,124.45
2022-09-10T09:23:21.934Z,129.38
2022-09-10T09:25:57.534Z,130.43
2022-09-10T09:28:43.701Z,132.93
2022-09-10T09:31:17.763Z,130.15
2022-09-10T09:33:46.471Z,132.82
2022-09-10T09:36:18.910Z,141.73
2022-09-10T09:38:48.901Z,141.25
2022-09-10T09:41:24.764Z,157.35
2022-09-10T09:44:16.271Z,154.82
2022-09-10T09:46:42.654Z,146.88
2022-09-10T09:49:16.881Z,154.27
2022-09-10T09:51:48.473Z,146.23
2022-09-10T09:54:56.525Z,157.45
2022-09-10T09:57:15.593Z,144.25
2022-09-10T09:59:41.925Z,153.02
2022-09-10T10:02:15.284Z,187.10
2022-09-10T10:04:54.575Z,146.17
2022-09-10T10:07:31.586Z,157.88
2022-09-10T10:10:01.005Z,141.95
2022-09-10T10:12:32.871Z,136.15
2022-09-10T10:15:00.867Z,146.65
2022-09-10T10:17:37.251Z,115.78
2022-09-10T10:20:12.943Z,111.10
2022-09-10T10:22:41.330Z,106.03
2022-09-10T10:25:38.125Z,108.60
2022-09-10T10:28:15.478Z,109.57
2022-09-10T10:30:42.187Z,114.03
2022-09-10T10:33:17.969Z,110.63
2022-09-10T10:35:58.493Z,101.03
2022-09-10T10:38:40.578Z,106.55
2022-09-10T10:41:39.360Z,105.63
2022-09-10T10:44:26.447Z,118.40
2022-09-10T10:47:29.822Z,111.82
2022-09-10T10:50:21.256Z,108.05
2022-09-10T10:53:06.255Z,105.72
2022-09-10T10:55:44.199Z,109.90
2022-09-10T10:58:16.696Z,100.82
2022-09-10T11:00:49.618Z,109.53
2022-09-10T11:03:25.221Z,98.43
2022-09-10T11:06:00.790Z,92.70
2022-09-10T11:08:38.925Z,103.07
2022-09-10T11:11:13.829Z,104.60
2022-09-10T11:13:47.112Z,97.82
2022-09-10T11:16:26.803Z,94.90
2022-09-10T11:19:03.004Z,91.72
2022-09-10T11:21:45.234Z,94.60
2022-09-10T11:24:18.684Z,94.55
2022-09-10T11:26:51.071Z,97.53
2022-09-10T11:29:33.815Z,95.88
2022-09-10T11:32:45.359Z,100.75
2022-09-10T11:35:27.874Z,96.10
2022-09-10T11:38:20.598Z,89.22
2022-09-10T11:40:56.142Z,94.00
2022-09-10T11:43:42.192Z,92.78
2022-09-10T11:46:15.473Z,93.80
2022-09-10T11:49:03.522Z,95.47
2022-09-10T11:51:36.838Z,88.22
2022-09-10T11:54:07.199Z,88.38
2022-09-10T11:57:09.819Z,90.47
2022-09-10T12:00:03.587Z,86.57
2022-09-10T12:02:43.131Z,92.00
2022-09-10T12:05:09.362Z,93.90
2022-09-10T12:08:04.659Z,86.80
2022-09-10T12:10:57.262Z,87.03
2022-09-10T12:13:23.721Z,82.22
2022-09-10T12:15:55.974Z,89.53
2022-09-10T12:18:27.945Z,84.18
2022-09-10T12:20:57.837Z,85.30
2022-09-10T12:23:29.182Z,90.38
2022-09-10T12:26:19.595Z,96.05
2022-09-10T12:28:46.000Z,93.22
2022-09-10T12:31:15.171Z,87.60
2022-09-10T12:33:44.367Z,85.40
2022-09-10T12:36:35.298Z,86.35
2022-09-10T12:39:22.169Z,83.40
2022-09-10T12:41:49.657Z,87.80
2022-09-10T12:44:25.217Z,81.45
2022-09-10T12:47:23.609Z,81.45
2022-09-10T12:49:58.428Z,82.82
2022-09-10T12:53:06.786Z,86.13
2022-09-10T12:55:42.721Z,86.10
2022-09-10T12:58:25.553Z,81.95
2022-09-10T13:00:54.685Z,88.28
2022-09-10T13:03:24.130Z,83.07
2022-09-10T13:05:54.150Z,79.43
2022-09-10T13:08:29.488Z,67.82
2022-09-10T13:10:57.230Z,66.05
2022-09-10T13:13:56.341Z,52.05
2022-09-10T13:16:28.802Z,37.47
2022-09-10T13:19:21.708Z,34.00
2022-09-10T13:21:48.172Z,41.03
2022-09-10T13:24:33.981Z,39.63
2022-09-10T13:27:12.574Z,38.58
2022-09-10T13:29:44.598Z,36.83
2022-09-10T13:32:20.313Z,40.80
2022-09-10T13:35:10.537Z,34.72
2022-09-10T13:38:02.148Z,31.83
2022-09-10T13:40:50.886Z,32.70
2022-09-10T13:43:52.492Z,35.10
2022-09-10T13:46:31.093Z,36.20
2022-09-10T13:49:09.785Z,31.30
2022-09-10T13:51:51.960Z,34.20
2022-09-10T13:54:34.300Z,35.20
2022-09-10T13:57:13.155Z,37.42
2022-09-10T13:59:41.666Z,35.28
2022-09-10T14:02:08.299Z,40.15
2022-09-10T14:04:45.075Z,34.95
2022-09-10T14:07:20.260Z,28.10
2022-09-10T14:09:54.595Z,23.58
2022-09-10T14:14:57.076Z,30.05
2022-09-10T14:17:29.122Z,29.13
2022-09-10T14:20:01.441Z,28.10
2022-09-10T14:22:29.600Z,28.42
2022-09-10T14:25:01.516Z,29.10
2022-09-10T14:27:31.304Z,26.25
2022-09-10T14:30:21.214Z,26.55
2022-09-10T14:32:47.722Z,29.45
2022-09-10T14:35:40.290Z,29.90
2022-09-10T14:38:24.827Z,29.83
2022-09-10T14:40:58.291Z,28.73
2022-09-10T14:43:29.392Z,30.87
2022-09-10T14:45:56.007Z,30.67
2022-09-10T14:48:38.979Z,31.08
2022-09-10T14:51:14.631Z,40.45
2022-09-10T14:53:42.272Z,46.63
2022-09-10T14:56:22.213Z,64.82
2022-09-10T14:59:01.475Z,77.65
2022-09-10T15:01:30.308Z,78.65
2022-09-10T15:03:57.336Z,85.03
2022-09-10T15:06:26.533Z,80.70
2022-09-10T15:08:55.965Z,71.13
2022-09-10T15:11:27.803Z,76.10
2022-09-10T15:13:55.998Z,75.03
2022-09-10T15:16:23.263Z,80.55
2022-09-10T15:18:49.808Z,80.18
2022-09-10T15:21:16.434Z,85.47
2022-09-10T15:23:44.349Z,85.65
2022-09-10T15:26:13.677Z,81.90
2022-09-10T15:28:41.093Z,87.70
2022-09-10T15:31:07.880Z,84.22
2022-09-10T15:33:34.538Z,94.35
2022-09-10T15:36:01.830Z,91.18
2022-09-10T15:38:28.213Z,99.32
2022-09-10T15:41:06.797Z,93.05
2022-09-10T15:43:37.548Z,94.95
2022-09-10T15:46:08.940Z,92.50
2022-09-10T15:48:36.285Z,93.88
2022-09-10T15:51:05.985Z,94.45
2022-09-10T15:53:36.233Z,94.43
2022-09-10T15:56:04.413Z,96.32
2022-09-10T15:58:31.317Z,95.05
2022-09-10T16:01:05.750Z,94.07
2022-09-10T16:03:32.282Z,87.32
2022-09-10T16:06:09.561Z,94.45
2022-09-10T16:08:36.175Z,98.55
2022-09-10T16:11:11.656Z,90.20
2022-09-10T16:13:39.678Z,83.97
2022-09-10T16:16:08.677Z,82.60
2022-09-10T16:18:35.859Z,89.25
2022-09-10T16:21:09.225Z,93.72
2022-09-10T16:23:37.074Z,93.22
2022-09-10T16:26:05.865Z,93.75
2022-09-10T16:28:33.567Z,98.20
2022-09-10T16:31:34.215Z,95.90
2022-09-10T16:34:03.395Z,93.05
2022-09-10T16:36:32.932Z,96.75
2022-09-10T16:39:03.408Z,95.93
2022-09-10T16:41:30.337Z,91.80
2022-09-10T16:43:59.173Z,97.65
2022-09-10T16:46:27.847Z,94.45
2022-09-10T16:48:55.183Z,90.95
2022-09-10T16:51:24.211Z,92.20
2022-09-10T16:53:57.146Z,88.63
2022-09-10T16:56:25.277Z,82.05
2022-09-10T16:58:51.886Z,86.47
2022-09-10T17:01:18.802Z,87.30
2022-09-10T17:03:49.802Z,86.00
2022-09-10T17:06:18.257Z,93.10
2022-09-10T17:08:45.579Z,84.10
2022-09-10T17:11:14.190Z,77.57
2022-09-10T17:13:41.567Z,83.63
2022-09-10T17:16:16.965Z,80.90
2022-09-10T17:18:44.874Z,82.35
2022-09-10T17:21:11.633Z,77.97
2022-09-10T17:23:37.959Z,76.03
2022-09-10T17:26:08.853Z,78.13
2022-09-10T17:28:38.744Z,80.95
2022-09-10T17:31:05.810Z,90.15
2022-09-10T17:33:33.737Z,87.93
2022-09-10T17:36:03.999Z,93.25
2022-09-10T17:38:33.148Z,94.00
2022-09-10T17:41:03.446Z,92.78
2022-09-10T17:43:35.290Z,90.28
2022-09-10T17:46:07.135Z,93.43
2022-09-10T17:48:35.754Z,98.38
2022-09-10T17:51:02.552Z,93.28
2022-09-10T17:53:28.950Z,94.65
2022-09-10T17:56:02.099Z,94.40
2022-09-10T17:58:28.578Z,98.18
2022-09-10T18:00:58.233Z,98.97
2022-09-10T18:03:24.595Z,93.57
2022-09-10T18:05:51.027Z,98.20
2022-09-10T18:08:17.693Z,101.75
2022-09-10T18:10:45.212Z,99.15
2022-09-10T18:13:11.995Z,98.30
2022-09-10T18:15:47.755Z,98.18
2022-09-10T18:18:14.134Z,99.00
2022-09-10T18:20:40.863Z,101.43
2022-09-10T18:23:07.255Z,99.95
2022-09-10T18:25:33.808Z,96.25
2022-09-10T18:28:01.430Z,97.65
2022-09-10T18:30:28.335Z,94.47
2022-09-10T18:32:54.727Z,94.93
2022-09-10T18:35:21.297Z,94.78
2022-09-10T18:37:49.976Z,94.65
2022-09-10T18:40:16.592Z,98.15
2022-09-10T18:42:46.626Z,95.93
2022-09-10T18:45:13.725Z,95.88
2022-09-10T18:47:47.159Z,94.88
2022-09-10T18:50:13.600Z,95.53
2022-09-10T18:52:39.989Z,95.13
2022-09-10T18:55:06.958Z,94.82
2022-09-10T18:57:33.313Z,91.63
2022-09-10T19:00:00.374Z,86.88
2022-09-10T19:02:26.850Z,82.88
2022-09-10T19:05:11.688Z,83.30
2022-09-10T19:07:38.649Z,83.50
2022-09-10T19:10:07.011Z,86.72
2022-09-10T19:12:33.659Z,87.97
2022-09-10T19:15:00.396Z,86.18
2022-09-10T19:17:26.737Z,84.53
2022-09-10T19:19:53.051Z,88.47
2022-09-10T19:22:19.414Z,85.63
2022-09-10T19:24:55.877Z,86.43
2022-09-10T19:27:23.794Z,90.82
2022-09-10T19:29:50.477Z,89.65
2022-09-10T19:32:19.325Z,90.05
2022-09-10T19:34:45.655Z,90.00
2022-09-10T19:37:12.865Z,87.32
2022-09-10T19:39:39.402Z,86.53
2022-09-10T19:42:06.712Z,86.80
2022-09-10T19:44:33.594Z,85.68
2022-09-10T19:47:00.089Z,83.30
2022-09-10T19:49:26.532Z,83.22
2022-09-10T19:51:53.985Z,81.80
2022-09-10T19:54:21.307Z,76.85
2022-09-10T19:56:47.681Z,81.88
2022-09-10T19:59:14.486Z,77.22
2022-09-10T20:01:43.651Z,74.20
2022-09-10T20:04:11.577Z,79.10
2022-09-10T20:06:38.864Z,80.65
2022-09-10T20:09:06.843Z,80.65
2022-09-10T20:11:35.152Z,79.75
2022-09-10T20:14:07.877Z,81.45
2022-09-10T20:16:42.795Z,83.20
2022-09-10T20:19:11.974Z,78.45
2022-09-10T20:21:39.193Z,81.07
2022-09-10T20:24:07.240Z,76.18
2022-09-10T20:26:37.325Z,76.80
2022-09-10T20:29:07.396Z,80.82
2022-09-10T20:31:36.330Z,78.03
2022-09-10T20:34:05.461Z,82.35
2022-09-10T20:36:32.907Z,81.82
2022-09-10T20:38:59.258Z,80.00
2022-09-10T20:41:30.113Z,79.07
2022-09-10T20:43:58.578Z,81.15
2022-09-10T20:46:30.178Z,80.65
2022-09-10T20:49:04.541Z,81.28
2022-09-10T20:53:59.257Z,96.82
2022-09-10T20:56:26.199Z,88.03
2022-09-10T20:58:52.744Z,86.75
2022-09-10T21:01:24.422Z,83.88
2022-09-10T21:03:53.459Z,82.07
2022-09-10T21:06:23.392Z,87.22
2022-09-10T21:08:51.403Z,87.80
2022-09-10T21:11:20.719Z,98.85
2022-09-10T21:13:49.585Z,81.10
2022-09-10T21:16:26.844Z,85.63
2022-09-10T21:18:57.400Z,82.68
2022-09-10T21:21:26.248Z,83.72
2022-09-10T21:23:57.317Z,78.30
2022-09-10T21:26:26.630Z,85.43
2022-09-10T21:28:56.099Z,83.10
2022-09-10T21:31:23.168Z,80.07
2022-09-10T21:33:49.983Z,78.88
2022-09-10T21:36:20.773Z,77.72
2022-09-10T21:38:53.124Z,80.70
2022-09-10T21:41:26.415Z,79.53
2022-09-10T21:43:52.795Z,79.18
2022-09-10T21:46:19.766Z,84.80
2022-09-10T21:48:46.307Z,82.22
2022-09-10T21:51:14.950Z,78.22
2022-09-10T21:53:42.933Z,84.60
2022-09-10T21:56:14.830Z,79.47
2022-09-10T21:58:42.988Z,80.32
2022-09-10T22:01:15.036Z,82.78
2022-09-10T22:03:41.752Z,88.25
2022-09-10T22:06:12.827Z,90.70
2022-09-10T22:08:41.825Z,89.57
2022-09-10T22:11:14.377Z,90.70
2022-09-10T22:13:42.226Z,87.20
2022-09-10T22:16:12.399Z,84.68
2022-09-10T22:18:39.990Z,83.93
2022-09-10T22:21:06.742Z,82.55
2022-09-10T22:23:35.419Z,78.30
2022-09-10T22:26:13.539Z,82.18
2022-09-10T22:28:40.558Z,81.90
2022-09-10T22:31:16.245Z,79.85
2022-09-10T22:33:44.815Z,81.18
2022-09-10T22:36:16.123Z,75.80
2022-09-10T22:38:43.341Z,78.53
2022-09-10T22:41:10.597Z,74.82
2022-09-10T22:43:38.357Z,79.72
2022-09-10T22:46:07.027Z,74.97
2022-09-10T22:48:38.056Z,78.80
2022-09-10T22:51:06.523Z,76.15
2022-09-10T22:53:34.220Z,71.72
2022-09-10T22:56:02.142Z,75.85
2022-09-10T22:58:28.655Z,76.40
2022-09-10T23:00:55.956Z,74.63
2022-09-10T23:03:22.580Z,73.15
2022-09-10T23:05:49.382Z,71.90
2022-09-10T23:08:16.925Z,71.07
2022-09-10T23:10:43.260Z,73.63
2022-09-10T23:13:09.611Z,72.00
2022-09-10T23:15:36.354Z,74.38
2022-09-10T23:18:02.854Z,74.30
2022-09-10T23:20:29.274Z,73.88
2022-09-10T23:22:55.606Z,76.20
2022-09-10T23:25:21.964Z,76.25
2022-09-10T23:27:51.033Z,72.13
2022-09-10T23:30:17.853Z,71.28
2022-09-10T23:32:44.255Z,74.75
2022-09-10T23:35:10.593Z,73.10
2022-09-10T23:37:37.074Z,69.68
2022-09-10T23:40:03.905Z,72.47
2022-09-10T23:42:31.200Z,71.25
2022-09-10T23:44:57.605Z,66.40
2022-09-10T23:47:23.942Z,67.63
2022-09-10T23:49:50.345Z,70.72
2022-09-10T23:52:17.555Z,74.20
2022-09-10T23:54:44.036Z,72.63
2022-09-10T23:57:10.880Z,68.70
2022-09-10T23:59:37.205Z,70.30
